Terminal Aerodrome Forecast
Issued by NWS

Home | Current Version | Previous Version | Text Only | Print | Product List | Glossary On
Versions: 1 2 3 4 5 6 7 8 9 10 11 12 13 14 15 16 17 18 19 20 21 22 23 24 25
000
FTUS45 KBOU 161439 AAA
TAFAPA
TAF AMD
KAPA 161439Z 1615/1712 07010G18KT P6SM FEW080 SCT140 BKN200
     FM161700 05012KT P6SM SCT080 BKN120
     FM162200 07012KT P6SM VCSH SCT040 BKN080
     FM170200 10010KT P6SM VCSH SCT040 OVC080
     FM170600 15007KT P6SM SCT050 BKN080 OVC120
     FM170800 20008KT P6SM FEW060 SCT080 BKN120=

USA.gov is the U.S. government's official web portal to all federal, state and local government web resources and services.